createdAt,value
2022-10-09T00:00:11.909Z,95108.06
2022-10-09T00:01:18.880Z,95096.78
2022-10-09T00:02:15.762Z,95126.09
2022-10-09T00:03:13.579Z,95064.13
2022-10-09T00:04:10.247Z,95107.44
2022-10-09T00:05:07.330Z,95124.88
2022-10-09T00:06:06.191Z,95099.88
2022-10-09T00:07:02.877Z,95076.25
2022-10-09T00:07:59.678Z,95117.00
2022-10-09T00:08:57.187Z,95126.19
2022-10-09T00:09:53.874Z,95098.09
2022-10-09T00:10:50.818Z,95092.06
2022-10-09T00:11:48.018Z,94915.53
2022-10-09T00:12:45.244Z,95088.00
2022-10-09T00:13:42.360Z,95049.91
2022-10-09T00:14:39.092Z,95101.28
2022-10-09T00:15:44.254Z,94985.47
2022-10-09T00:16:41.061Z,95106.41
2022-10-09T00:17:38.195Z,95112.56
2022-10-09T00:18:36.017Z,95096.78
2022-10-09T00:19:32.696Z,95103.66
2022-10-09T00:20:29.849Z,95101.25
2022-10-09T00:21:29.273Z,94974.19
2022-10-09T00:22:25.988Z,95084.38
2022-10-09T00:23:22.818Z,95082.53
2022-10-09T00:24:19.493Z,94935.81
2022-10-09T00:25:16.350Z,95099.25
2022-10-09T00:26:13.316Z,95123.03
2022-10-09T00:27:10.021Z,95107.50
2022-10-09T00:28:06.752Z,95109.53
2022-10-09T00:29:03.738Z,95059.78
2022-10-09T00:30:00.562Z,95108.00
2022-10-09T00:30:57.586Z,95098.84
2022-10-09T00:31:54.305Z,95098.50
2022-10-09T00:32:51.208Z,95060.22
2022-10-09T00:33:48.059Z,95026.19
2022-10-09T00:34:45.239Z,95019.78
2022-10-09T00:35:42.938Z,95073.88
2022-10-09T00:36:39.642Z,94926.97
2022-10-09T00:37:36.326Z,95104.81
2022-10-09T00:38:33.882Z,95088.00
2022-10-09T00:39:30.960Z,95021.66
2022-10-09T00:40:27.650Z,95086.00
2022-10-09T00:41:27.424Z,95081.97
2022-10-09T00:42:26.298Z,95099.31
2022-10-09T00:43:48.071Z,95026.56
2022-10-09T00:45:00.447Z,95034.94
2022-10-09T00:45:57.322Z,95051.28
2022-10-09T00:46:54.065Z,95018.94
2022-10-09T00:47:55.843Z,95083.38
2022-10-09T00:49:00.399Z,95079.72
2022-10-09T00:50:20.202Z,95073.88
2022-10-09T00:51:16.985Z,95075.38
2022-10-09T00:52:14.171Z,95085.13
2022-10-09T00:53:15.808Z,95083.50
2022-10-09T00:54:16.475Z,95034.72
2022-10-09T00:55:14.977Z,95115.91
2022-10-09T00:56:11.669Z,95027.88
2022-10-09T00:57:09.440Z,95075.47
2022-10-09T00:58:06.950Z,95045.19
2022-10-09T00:59:05.377Z,95054.69
2022-10-09T01:00:06.371Z,95077.47
2022-10-09T01:01:03.106Z,95058.91
2022-10-09T01:02:00.163Z,95061.88
2022-10-09T01:02:57.173Z,95107.19
2022-10-09T01:03:53.879Z,95004.59
2022-10-09T01:04:50.549Z,95004.59
2022-10-09T01:06:13.913Z,95065.88
2022-10-09T01:07:35.556Z,95060.34
2022-10-09T01:08:45.542Z,95074.50
2022-10-09T01:09:42.179Z,95066.47
2022-10-09T01:10:55.882Z,95082.72
2022-10-09T01:12:06.055Z,95077.28
2022-10-09T01:13:11.672Z,95064.91
2022-10-09T01:14:26.074Z,95077.09
2022-10-09T01:15:33.527Z,95051.47
2022-10-09T01:16:39.598Z,95074.03
2022-10-09T01:17:42.405Z,95087.75
2022-10-09T01:18:57.861Z,95070.75
2022-10-09T01:20:27.296Z,95074.00
2022-10-09T01:21:37.587Z,95049.41
2022-10-09T01:22:58.582Z,95085.28
2022-10-09T01:24:05.225Z,95070.91
2022-10-09T01:25:11.038Z,95089.19
2022-10-09T01:26:23.779Z,95075.47
2022-10-09T01:27:28.114Z,94907.59
2022-10-09T01:28:30.209Z,94898.53
2022-10-09T01:29:35.626Z,95087.41
2022-10-09T01:30:35.077Z,95043.22
2022-10-09T01:31:39.454Z,95022.84
2022-10-09T01:32:44.137Z,95087.25
2022-10-09T01:33:41.458Z,95120.81
2022-10-09T01:34:41.071Z,95038.78
2022-10-09T01:35:40.063Z,95092.53
2022-10-09T01:36:39.724Z,95077.94
2022-10-09T01:37:42.035Z,95074.31
2022-10-09T01:38:42.656Z,95073.03
2022-10-09T01:39:42.938Z,95079.16
2022-10-09T01:40:39.625Z,94760.91
2022-10-09T01:41:37.598Z,95101.00
2022-10-09T01:42:34.751Z,95095.75
2022-10-09T01:43:31.460Z,94973.81
2022-10-09T01:44:31.783Z,95104.25
2022-10-09T01:45:39.907Z,95008.53
2022-10-09T01:46:36.755Z,95056.63
2022-10-09T01:47:34.202Z,95087.94
2022-10-09T01:48:31.942Z,95102.69
2022-10-09T01:49:44.786Z,95003.72
2022-10-09T01:50:46.586Z,95071.47
2022-10-09T01:52:06.785Z,95080.41
2022-10-09T01:53:14.870Z,94904.84
2022-10-09T01:54:15.183Z,95038.81
2022-10-09T01:55:36.348Z,95085.41
2022-10-09T01:56:39.033Z,95074.69
2022-10-09T01:57:46.462Z,94996.81
2022-10-09T01:58:54.879Z,95109.94
2022-10-09T01:59:54.684Z,95102.66
2022-10-09T02:01:13.669Z,95067.16
2022-10-09T02:02:11.661Z,95078.81
2022-10-09T02:03:14.477Z,95097.78
2022-10-09T02:04:15.117Z,95047.13
2022-10-09T02:05:20.076Z,95040.50
2022-10-09T02:06:18.649Z,95064.72
2022-10-09T02:07:17.291Z,95100.34
2022-10-09T02:08:19.109Z,94992.34
2022-10-09T02:09:18.291Z,95128.31
2022-10-09T02:10:18.434Z,95091.69
2022-10-09T02:11:15.962Z,95068.06
2022-10-09T02:12:17.634Z,95105.59
2022-10-09T02:13:14.291Z,95105.41
2022-10-09T02:14:11.756Z,94955.47
2022-10-09T02:15:09.679Z,95048.47
2022-10-09T02:16:18.949Z,95087.22
2022-10-09T02:17:27.121Z,95098.59
2022-10-09T02:18:45.387Z,95089.59
2022-10-09T02:19:48.859Z,94980.38
2022-10-09T02:20:51.957Z,95052.16
2022-10-09T02:21:54.712Z,95094.19
2022-10-09T02:22:53.392Z,95111.63
2022-10-09T02:23:51.958Z,95041.28
2022-10-09T02:24:48.936Z,95116.06
2022-10-09T02:25:46.378Z,94946.03
2022-10-09T02:26:43.306Z,95105.03
2022-10-09T02:27:40.122Z,94936.50
2022-10-09T02:28:37.449Z,95115.09
2022-10-09T02:29:34.499Z,95105.34
2022-10-09T02:30:48.199Z,95103.31
2022-10-09T02:31:45.702Z,95013.38
2022-10-09T02:32:42.411Z,95091.19
2022-10-09T02:33:39.292Z,94942.00
2022-10-09T02:34:36.019Z,95087.56
2022-10-09T02:35:33.097Z,95119.50
2022-10-09T02:36:31.356Z,95109.97
2022-10-09T02:37:28.099Z,95098.59
2022-10-09T02:38:24.944Z,94931.09
2022-10-09T02:39:21.634Z,95094.56
2022-10-09T02:40:18.326Z,95109.56
2022-10-09T02:41:15.017Z,95106.72
2022-10-09T02:42:11.718Z,95089.81
2022-10-09T02:43:08.393Z,95110.59
2022-10-09T02:44:06.477Z,95089.41
2022-10-09T02:45:03.390Z,95059.50
2022-10-09T02:46:00.155Z,94958.56
2022-10-09T02:46:56.931Z,95097.09
2022-10-09T02:47:53.619Z,95114.06
2022-10-09T02:48:50.383Z,95122.72
2022-10-09T02:49:47.049Z,95100.22
2022-10-09T02:50:43.816Z,95105.84
2022-10-09T02:51:40.502Z,95122.19
2022-10-09T02:52:37.211Z,95110.06
2022-10-09T02:53:33.936Z,95051.78
2022-10-09T02:54:30.934Z,95079.47
2022-10-09T02:55:27.697Z,94896.84
2022-10-09T02:56:24.428Z,95110.41
2022-10-09T02:57:21.128Z,95114.81
2022-10-09T02:58:17.901Z,95110.38
2022-10-09T02:59:14.650Z,95120.03
2022-10-09T03:00:12.086Z,95112.94
2022-10-09T03:01:08.853Z,95114.34
2022-10-09T03:02:05.627Z,95106.09
2022-10-09T03:03:02.410Z,95136.66
2022-10-09T03:03:59.248Z,94959.56
2022-10-09T03:04:55.969Z,95100.06
2022-10-09T03:06:02.633Z,95067.97
2022-10-09T03:06:59.399Z,94933.91
2022-10-09T03:07:56.163Z,95124.75
2022-10-09T03:08:54.284Z,95039.31
2022-10-09T03:09:51.021Z,95116.06
2022-10-09T03:10:47.702Z,95115.25
2022-10-09T03:11:44.469Z,95118.84
2022-10-09T03:12:41.217Z,95127.78
2022-10-09T03:13:39.781Z,95105.16
2022-10-09T03:14:36.534Z,95113.66
2022-10-09T03:15:37.465Z,95127.41
2022-10-09T03:16:34.224Z,95068.41
2022-10-09T03:17:30.992Z,95119.72
2022-10-09T03:18:27.721Z,95119.72
2022-10-09T03:19:24.533Z,95101.94
2022-10-09T03:20:21.569Z,95115.28
2022-10-09T03:21:21.450Z,95107.97
2022-10-09T03:22:18.121Z,95069.22
2022-10-09T03:23:14.777Z,95127.41
2022-10-09T03:24:11.541Z,95128.63
2022-10-09T03:25:08.410Z,95136.09
2022-10-09T03:26:08.560Z,95110.63
2022-10-09T03:27:06.371Z,95110.00
2022-10-09T03:28:03.506Z,95043.78
2022-10-09T03:29:00.283Z,95124.97
2022-10-09T03:29:58.548Z,95073.69
2022-10-09T03:30:55.980Z,95042.56
2022-10-09T03:31:53.505Z,95162.19
2022-10-09T03:32:50.787Z,95135.28
2022-10-09T03:33:47.758Z,95121.75
2022-10-09T03:34:44.458Z,95085.16
2022-10-09T03:35:41.875Z,95029.66
2022-10-09T03:36:38.562Z,95137.28
2022-10-09T03:37:35.606Z,95056.72
2022-10-09T03:38:32.790Z,95016.34
2022-10-09T03:39:29.476Z,95140.75
2022-10-09T03:40:26.110Z,95032.69
2022-10-09T03:41:22.789Z,95024.00
2022-10-09T03:42:19.481Z,95097.50
2022-10-09T03:43:16.184Z,95130.66
2022-10-09T03:44:12.898Z,94947.69
2022-10-09T03:45:10.020Z,95134.47
2022-10-09T03:46:08.517Z,95136.28
2022-10-09T03:47:05.204Z,95131.03
2022-10-09T03:48:01.910Z,95137.09
2022-10-09T03:48:58.647Z,95142.53
2022-10-09T03:49:55.334Z,95128.41
2022-10-09T03:50:52.154Z,95125.38
2022-10-09T03:51:48.852Z,95135.25
2022-10-09T03:52:45.708Z,95132.63
2022-10-09T03:53:42.586Z,95079.69
2022-10-09T03:54:39.304Z,95142.34
2022-10-09T03:55:36.014Z,95070.59
2022-10-09T03:56:32.749Z,95091.84
2022-10-09T03:57:29.585Z,95121.34
2022-10-09T03:58:26.519Z,95136.66
2022-10-09T03:59:23.357Z,95144.97
2022-10-09T04:00:20.096Z,95142.72
2022-10-09T04:01:16.929Z,95134.41
2022-10-09T04:02:13.779Z,95102.72
2022-10-09T04:03:10.613Z,95124.91
2022-10-09T04:04:07.298Z,95156.06
2022-10-09T04:05:04.589Z,95128.22
2022-10-09T04:06:01.358Z,95144.78
2022-10-09T04:06:58.044Z,95136.50
2022-10-09T04:07:54.725Z,95141.38
2022-10-09T04:08:51.406Z,95120.94
2022-10-09T04:09:48.262Z,95135.50
2022-10-09T04:10:44.965Z,95153.06
2022-10-09T04:11:41.666Z,95146.00
2022-10-09T04:12:38.717Z,95139.56
2022-10-09T04:13:35.586Z,95132.25
2022-10-09T04:14:32.325Z,95079.72
2022-10-09T04:15:29.087Z,95148.22
2022-10-09T04:16:25.830Z,95136.72
2022-10-09T04:17:22.559Z,95139.94
2022-10-09T04:18:19.495Z,94997.34
2022-10-09T04:19:16.218Z,94997.34
2022-10-09T04:20:12.891Z,95064.38
2022-10-09T04:21:10.026Z,95084.19
2022-10-09T04:22:06.794Z,95150.06
2022-10-09T04:23:03.454Z,95156.72
2022-10-09T04:24:00.218Z,95092.66
2022-10-09T04:24:56.919Z,95100.34
2022-10-09T04:25:59.456Z,95147.63
2022-10-09T04:26:56.966Z,95148.22
2022-10-09T04:27:53.670Z,95127.59
2022-10-09T04:28:50.646Z,95123.75
2022-10-09T04:29:47.414Z,95107.81
2022-10-09T04:30:44.138Z,95147.22
2022-10-09T04:31:40.947Z,95125.78
2022-10-09T04:32:38.924Z,95188.84
2022-10-09T04:33:35.706Z,95140.16
2022-10-09T04:34:32.440Z,95150.44
2022-10-09T04:35:29.117Z,95115.69
2022-10-09T04:36:25.798Z,95131.84
2022-10-09T04:37:22.553Z,95134.28
2022-10-09T04:38:20.632Z,95147.22
2022-10-09T04:39:17.430Z,94988.00
2022-10-09T04:40:14.262Z,95127.19
2022-10-09T04:41:11.059Z,95163.38
2022-10-09T04:42:08.064Z,95154.28
2022-10-09T04:43:04.771Z,95158.53
2022-10-09T04:44:01.479Z,95083.34
2022-10-09T04:44:58.273Z,95171.47
2022-10-09T04:45:55.263Z,95144.78
2022-10-09T04:46:52.150Z,95194.09
2022-10-09T04:47:48.950Z,95154.28
2022-10-09T04:48:46.401Z,95140.75
2022-10-09T04:49:44.630Z,94971.31
2022-10-09T04:50:41.339Z,95151.06
2022-10-09T04:51:38.012Z,95121.13
2022-10-09T04:52:34.722Z,95151.66
2022-10-09T04:53:31.427Z,95151.66
2022-10-09T04:54:28.127Z,95161.16
2022-10-09T04:55:24.920Z,95165.78
2022-10-09T04:56:22.923Z,95156.13
2022-10-09T04:57:19.629Z,95121.53
2022-10-09T04:58:16.321Z,95157.34
2022-10-09T04:59:13.016Z,95168.44
2022-10-09T05:00:10.400Z,95167.44
2022-10-09T05:01:08.809Z,95171.47
2022-10-09T05:02:05.643Z,95177.53
2022-10-09T05:03:02.538Z,94917.19
2022-10-09T05:03:59.222Z,95152.69
2022-10-09T05:04:57.329Z,95159.56
2022-10-09T05:05:54.111Z,95179.16
2022-10-09T05:06:50.791Z,95111.66
2022-10-09T05:07:47.591Z,95139.94
2022-10-09T05:08:44.421Z,95105.78
2022-10-09T05:09:41.124Z,95179.13
2022-10-09T05:10:37.836Z,95162.38
2022-10-09T05:11:35.687Z,95165.22
2022-10-09T05:12:33.885Z,95136.72
2022-10-09T05:13:36.807Z,95171.44
2022-10-09T05:14:33.484Z,95146.81
2022-10-09T05:15:30.199Z,95082.94
2022-10-09T05:16:29.355Z,95181.78
2022-10-09T05:17:26.180Z,95171.06
2022-10-09T05:18:22.897Z,94859.75
2022-10-09T05:19:19.671Z,95143.56
2022-10-09T05:20:16.800Z,95144.34
2022-10-09T05:21:13.758Z,95100.69
2022-10-09T05:22:10.482Z,95120.91
2022-10-09T05:23:07.279Z,95183.88
2022-10-09T05:24:08.272Z,95033.19
2022-10-09T05:25:07.685Z,95005.81
2022-10-09T05:26:09.232Z,95191.69
2022-10-09T05:27:06.087Z,95194.72
2022-10-09T05:28:02.871Z,95156.53
2022-10-09T05:28:59.562Z,95168.03
2022-10-09T05:29:56.312Z,95060.34
2022-10-09T05:30:53.932Z,95193.25
2022-10-09T05:31:50.748Z,95191.66
2022-10-09T05:32:47.805Z,95190.06
2022-10-09T05:33:45.055Z,95188.88
2022-10-09T05:34:42.651Z,95198.31
2022-10-09T05:35:39.432Z,95202.09
2022-10-09T05:36:36.569Z,95163.97
2022-10-09T05:37:33.434Z,95192.59
2022-10-09T05:38:30.537Z,95148.19
2022-10-09T05:39:27.211Z,95112.84
2022-10-09T05:40:28.981Z,95184.56
2022-10-09T05:41:25.990Z,95077.13
2022-10-09T05:42:22.680Z,95176.34
2022-10-09T05:43:20.021Z,95203.28
2022-10-09T05:44:16.742Z,95211.94
2022-10-09T05:45:13.510Z,95208.47
2022-10-09T05:46:14.659Z,95192.22
2022-10-09T05:47:13.602Z,95185.56
2022-10-09T05:48:10.353Z,95210.03
2022-10-09T05:49:07.224Z,95193.09
2022-10-09T05:50:04.224Z,95210.31
2022-10-09T05:51:11.735Z,95198.81
2022-10-09T05:52:08.424Z,95155.22
2022-10-09T05:53:05.094Z,95212.94
2022-10-09T05:54:02.318Z,95202.13
2022-10-09T05:54:59.055Z,95197.75
2022-10-09T05:55:56.559Z,95205.06
2022-10-09T05:56:55.338Z,95218.38
2022-10-09T05:57:53.148Z,95142.50
2022-10-09T05:59:01.797Z,95221.16
2022-10-09T05:59:58.644Z,95223.50
2022-10-09T06:01:00.262Z,95162.94
2022-10-09T06:01:57.061Z,95215.22
2022-10-09T06:02:54.839Z,95232.59
2022-10-09T06:03:53.814Z,95233.19
2022-10-09T06:04:50.596Z,95155.22
2022-10-09T06:05:47.364Z,95229.13
2022-10-09T06:06:45.134Z,95195.38
2022-10-09T06:07:42.166Z,95233.31
2022-10-09T06:08:39.112Z,95205.41
2022-10-09T06:09:35.858Z,95232.53
2022-10-09T06:10:32.769Z,95242.25
2022-10-09T06:11:35.628Z,95156.38
2022-10-09T06:12:32.422Z,95240.66
2022-10-09T06:13:29.135Z,95239.78
2022-10-09T06:14:26.147Z,95224.84
2022-10-09T06:15:22.843Z,95238.25
2022-10-09T06:16:19.655Z,95253.28
2022-10-09T06:17:16.536Z,95200.59
2022-10-09T06:18:13.260Z,95205.09
2022-10-09T06:19:15.679Z,95226.00
2022-10-09T06:20:13.465Z,95218.75
2022-10-09T06:21:10.241Z,95173.09
2022-10-09T06:22:06.985Z,95157.84
2022-10-09T06:23:03.676Z,95250.19
2022-10-09T06:24:02.290Z,95251.25
2022-10-09T06:24:58.978Z,95227.22
2022-10-09T06:25:59.039Z,95236.94
2022-10-09T06:26:57.211Z,95100.28
2022-10-09T06:27:53.899Z,95259.25
2022-10-09T06:28:51.762Z,95262.25
2022-10-09T06:29:48.500Z,95258.63
2022-10-09T06:30:45.243Z,95260.34
2022-10-09T06:31:42.070Z,95240.38
2022-10-09T06:32:38.705Z,95263.16
2022-10-09T06:33:37.435Z,95229.06
2022-10-09T06:34:34.151Z,95310.34
2022-10-09T06:35:34.638Z,95257.28
2022-10-09T06:36:34.680Z,95278.91
2022-10-09T06:37:31.375Z,95263.66
2022-10-09T06:38:28.819Z,95240.53
2022-10-09T06:39:26.620Z,95281.34
2022-10-09T06:40:23.349Z,95248.25
2022-10-09T06:41:23.402Z,95230.03
2022-10-09T06:42:20.117Z,95263.22
2022-10-09T06:43:16.790Z,95262.47
2022-10-09T06:44:17.199Z,95138.44
2022-10-09T06:45:14.195Z,95111.06
2022-10-09T06:46:12.770Z,95208.41
2022-10-09T06:47:09.535Z,95212.72
2022-10-09T06:48:06.343Z,95226.00
2022-10-09T06:49:04.781Z,95271.72
2022-10-09T06:50:01.498Z,95259.06
2022-10-09T06:51:22.508Z,95262.34
2022-10-09T06:52:19.218Z,95275.94
2022-10-09T06:53:15.911Z,95204.66
2022-10-09T06:54:16.256Z,95253.88
2022-10-09T06:55:13.090Z,95211.09
2022-10-09T06:56:11.123Z,95253.44
2022-10-09T06:57:07.931Z,95273.28
2022-10-09T06:58:04.852Z,95267.41
2022-10-09T06:59:07.309Z,95267.91
2022-10-09T07:00:05.119Z,95221.63
2022-10-09T07:01:16.875Z,95237.19
2022-10-09T07:02:13.778Z,95243.72
2022-10-09T07:03:10.547Z,95275.91
2022-10-09T07:04:11.819Z,95268.50
2022-10-09T07:05:08.899Z,95271.56
2022-10-09T07:06:11.153Z,95277.22
2022-10-09T07:07:07.825Z,95196.25
2022-10-09T07:08:04.661Z,95227.34
2022-10-09T07:09:04.513Z,95275.81
2022-10-09T07:10:01.224Z,95272.88
2022-10-09T07:10:57.913Z,95257.38
2022-10-09T07:11:54.617Z,95287.19
2022-10-09T07:12:51.604Z,95269.34
2022-10-09T07:13:51.591Z,95212.91
2022-10-09T07:14:48.293Z,95284.91
2022-10-09T07:15:46.056Z,95221.50
2022-10-09T07:16:45.981Z,95273.44
2022-10-09T07:17:42.688Z,95251.41
2022-10-09T07:18:39.943Z,95272.88
2022-10-09T07:19:36.688Z,95228.75
2022-10-09T07:20:36.337Z,95204.88
2022-10-09T07:21:34.867Z,95211.03
2022-10-09T07:22:32.583Z,95274.06
2022-10-09T07:23:30.331Z,95276.69
2022-10-09T07:24:27.129Z,95283.34
2022-10-09T07:25:23.928Z,95293.03
2022-10-09T07:26:23.684Z,95277.41
2022-10-09T07:27:20.428Z,95253.22
2022-10-09T07:28:17.346Z,95248.75
2022-10-09T07:29:16.055Z,95272.44
2022-10-09T07:30:13.011Z,95286.38
2022-10-09T07:31:10.808Z,95278.13
2022-10-09T07:32:10.498Z,95288.34
2022-10-09T07:33:12.039Z,95279.84
2022-10-09T07:34:08.974Z,95250.16
2022-10-09T07:35:05.986Z,95295.34
2022-10-09T07:36:04.958Z,95283.13
2022-10-09T07:37:01.727Z,95292.75
2022-10-09T07:37:58.431Z,95122.66
2022-10-09T07:38:57.392Z,95286.00
2022-10-09T07:39:56.836Z,95258.59
2022-10-09T07:40:54.626Z,95153.63
2022-10-09T07:41:52.314Z,95304.66
2022-10-09T07:42:49.258Z,95302.72
2022-10-09T07:43:46.293Z,95274.25
2022-10-09T07:44:42.975Z,95299.25
2022-10-09T07:45:39.717Z,95288.91
2022-10-09T07:46:36.521Z,95317.94
2022-10-09T07:47:33.234Z,95307.44
2022-10-09T07:48:30.206Z,95298.34
2022-10-09T07:49:26.996Z,95304.34
2022-10-09T07:50:27.541Z,95248.81
2022-10-09T07:51:28.066Z,95241.47
2022-10-09T07:52:25.000Z,95286.28
2022-10-09T07:53:31.506Z,95273.34
2022-10-09T07:54:32.860Z,95297.09
2022-10-09T07:55:33.445Z,95283.72
2022-10-09T07:56:36.023Z,95293.06
2022-10-09T07:57:32.749Z,95110.56
2022-10-09T07:58:29.547Z,95275.41
2022-10-09T07:59:26.299Z,95295.25
2022-10-09T08:00:23.047Z,95292.25
2022-10-09T08:01:21.866Z,95284.03
2022-10-09T08:02:18.708Z,95294.16
2022-10-09T08:03:15.665Z,95302.47
2022-10-09T08:04:12.610Z,95292.63
2022-10-09T08:05:09.551Z,95277.16
2022-10-09T08:06:06.633Z,95290.72
2022-10-09T08:07:03.923Z,95265.63
2022-10-09T08:08:00.854Z,95271.09
2022-10-09T08:08:59.687Z,95271.72
2022-10-09T08:09:56.447Z,95284.66
2022-10-09T08:10:53.221Z,95265.72
2022-10-09T08:11:50.213Z,95273.63
2022-10-09T08:12:47.659Z,95249.81
2022-10-09T08:13:46.322Z,95109.00
2022-10-09T08:14:43.004Z,95082.03
2022-10-09T08:15:41.579Z,95262.56
2022-10-09T08:16:38.345Z,95254.19
2022-10-09T08:17:35.012Z,95256.41
2022-10-09T08:18:31.709Z,95265.22
2022-10-09T08:19:28.454Z,95164.69
2022-10-09T08:20:25.507Z,95270.44
2022-10-09T08:21:23.412Z,95209.84
2022-10-09T08:22:20.166Z,95280.09
2022-10-09T08:23:16.947Z,95133.78
2022-10-09T08:24:14.435Z,95262.44
2022-10-09T08:25:11.127Z,95201.50
2022-10-09T08:26:19.847Z,95096.28
2022-10-09T08:27:16.698Z,95263.38
2022-10-09T08:28:13.401Z,95248.47
2022-10-09T08:29:11.555Z,95264.28
2022-10-09T08:30:08.900Z,95267.53
2022-10-09T08:31:13.434Z,95257.78
2022-10-09T08:32:10.177Z,95237.53
2022-10-09T08:33:07.549Z,95211.34
2022-10-09T08:34:04.279Z,95259.00
2022-10-09T08:35:00.970Z,95235.72
2022-10-09T08:36:07.805Z,95240.59
2022-10-09T08:37:04.592Z,94998.19
2022-10-09T08:38:01.278Z,95237.94
2022-10-09T08:38:58.783Z,95264.47
2022-10-09T08:39:55.526Z,95239.41
2022-10-09T08:41:03.314Z,95197.81
2022-10-09T08:42:03.223Z,95260.66
2022-10-09T08:43:11.062Z,95275.47
2022-10-09T08:44:27.269Z,95222.88
2022-10-09T08:45:24.279Z,95257.28
2022-10-09T08:46:33.048Z,95216.94
2022-10-09T08:47:43.661Z,95245.06
2022-10-09T08:48:45.668Z,95247.22
2022-10-09T08:49:55.124Z,95076.78
2022-10-09T08:50:55.928Z,95227.81
2022-10-09T08:51:54.418Z,95250.75
2022-10-09T08:53:02.650Z,95244.41
2022-10-09T08:54:10.591Z,95214.25
2022-10-09T08:55:16.431Z,95230.34
2022-10-09T08:56:15.469Z,95226.03
2022-10-09T08:57:17.631Z,95244.44
2022-10-09T08:58:18.875Z,95208.53
2022-10-09T08:59:15.868Z,95256.59
2022-10-09T09:00:21.467Z,95197.88
2022-10-09T09:01:26.973Z,95228.22
2022-10-09T09:02:56.414Z,95245.91
2022-10-09T09:04:24.130Z,95228.88
2022-10-09T09:05:56.106Z,95215.16
2022-10-09T09:07:22.890Z,95225.31
2022-10-09T09:08:54.987Z,95225.50
2022-10-09T09:10:04.260Z,95235.56
2022-10-09T09:11:03.767Z,95222.88
2022-10-09T09:12:04.562Z,95219.09
2022-10-09T09:13:27.653Z,95216.06
2022-10-09T09:14:42.330Z,95220.81
2022-10-09T09:16:06.993Z,95080.94
2022-10-09T09:17:15.674Z,95217.81
2022-10-09T09:18:46.414Z,95222.34
2022-10-09T09:19:55.215Z,95229.38
2022-10-09T09:20:54.833Z,95218.72
2022-10-09T09:21:53.377Z,95166.25
2022-10-09T09:22:51.064Z,95198.44
2022-10-09T09:23:48.812Z,95224.53
2022-10-09T09:25:01.417Z,95057.03
2022-10-09T09:25:59.660Z,95233.84
2022-10-09T09:27:03.345Z,95224.59
2022-10-09T09:28:19.267Z,95219.41
2022-10-09T09:29:22.944Z,95153.69
2022-10-09T09:30:33.876Z,95215.66
2022-10-09T09:31:37.258Z,95124.06
2022-10-09T09:32:34.273Z,95232.03
2022-10-09T09:34:00.399Z,95226.47
2022-10-09T09:35:13.187Z,95208.06
2022-10-09T09:36:23.926Z,95218.72
2022-10-09T09:37:20.618Z,95217.22
2022-10-09T09:38:17.565Z,95237.34
2022-10-09T09:40:37.649Z,95229.38
2022-10-09T09:41:34.901Z,95229.09
2022-10-09T09:42:32.071Z,95224.88
2022-10-09T09:43:28.776Z,95224.00
2022-10-09T09:44:26.448Z,95206.38
2022-10-09T09:45:26.376Z,95199.75
2022-10-09T09:46:30.392Z,95152.38
2022-10-09T09:48:13.571Z,95217.88
2022-10-09T09:49:23.797Z,95222.56
2022-10-09T09:50:56.292Z,95240.06
2022-10-09T09:52:01.009Z,95198.59
2022-10-09T09:53:22.196Z,95225.50
2022-10-09T09:54:26.282Z,95186.97
2022-10-09T09:55:30.100Z,95181.97
2022-10-09T09:57:10.441Z,95221.50
2022-10-09T09:58:13.141Z,95223.84
2022-10-09T09:59:45.446Z,95211.19
2022-10-09T10:00:53.577Z,95167.28
2022-10-09T10:02:04.224Z,95186.44
2022-10-09T10:03:13.242Z,95208.19
2022-10-09T10:04:20.573Z,95173.16
2022-10-09T10:05:20.859Z,95220.63
2022-10-09T10:06:31.579Z,95168.16
2022-10-09T10:07:35.570Z,95234.25
2022-10-09T10:08:34.700Z,95210.53
2022-10-09T10:09:32.049Z,95241.84
2022-10-09T10:10:28.943Z,95076.25
2022-10-09T10:11:25.983Z,95226.03
2022-10-09T10:12:22.732Z,95178.88
2022-10-09T10:13:23.508Z,95188.72
2022-10-09T10:14:20.244Z,95221.75
2022-10-09T10:15:29.542Z,95224.72
2022-10-09T10:16:29.510Z,95203.03
2022-10-09T10:17:32.409Z,95228.22
2022-10-09T10:18:37.513Z,95213.50
2022-10-09T10:19:38.815Z,95236.72
2022-10-09T10:20:49.458Z,95238.06
2022-10-09T10:22:02.532Z,95229.88
2022-10-09T10:23:00.373Z,95199.38
2022-10-09T10:23:57.189Z,95218.03
2022-10-09T10:24:58.947Z,95068.50
2022-10-09T10:25:59.486Z,95238.91
2022-10-09T10:27:06.760Z,95231.47
2022-10-09T10:28:17.736Z,95232.81
2022-10-09T10:29:25.346Z,95234.66
2022-10-09T10:30:22.069Z,95217.03
2022-10-09T10:31:53.528Z,95206.06
2022-10-09T10:32:59.363Z,94949.59
2022-10-09T10:33:58.056Z,95211.75
2022-10-09T10:35:03.601Z,95209.06
2022-10-09T10:36:01.335Z,95233.63
2022-10-09T10:37:13.178Z,95208.03
2022-10-09T10:38:18.641Z,95210.66
2022-10-09T10:39:32.140Z,95195.13
2022-10-09T10:40:56.973Z,95199.72
2022-10-09T10:42:01.599Z,95189.81
2022-10-09T10:43:10.127Z,95193.59
2022-10-09T10:44:15.498Z,95196.25
2022-10-09T10:45:20.568Z,95047.69
2022-10-09T10:46:37.343Z,95191.75
2022-10-09T10:47:45.247Z,95093.59
2022-10-09T10:48:47.086Z,95189.91
2022-10-09T10:49:43.994Z,95215.56
2022-10-09T10:51:06.739Z,95082.94
2022-10-09T10:52:35.834Z,95184.03
2022-10-09T10:53:49.590Z,95184.03
2022-10-09T10:55:11.581Z,95188.53
2022-10-09T10:56:28.503Z,94992.13
2022-10-09T10:57:51.723Z,95181.38
2022-10-09T10:59:04.728Z,95203.81
2022-10-09T11:00:12.962Z,95172.00
2022-10-09T11:01:48.938Z,95182.16
2022-10-09T11:03:07.401Z,95169.06
2022-10-09T11:04:25.341Z,95033.31
2022-10-09T11:05:27.528Z,95181.34
2022-10-09T11:06:47.417Z,95174.41
2022-10-09T11:08:17.690Z,95173.34
2022-10-09T11:09:48.701Z,95039.97
2022-10-09T11:11:03.463Z,95170.13
2022-10-09T11:12:43.306Z,95149.28
2022-10-09T11:14:20.242Z,95128.44
2022-10-09T11:15:44.759Z,95162.09
2022-10-09T11:17:02.443Z,95160.78
2022-10-09T11:18:17.554Z,95153.03
2022-10-09T11:19:48.183Z,95017.84
2022-10-09T11:21:05.723Z,95156.22
2022-10-09T11:22:19.099Z,95026.66
2022-10-09T11:23:40.397Z,95158.34
2022-10-09T11:25:07.133Z,95153.56
2022-10-09T11:26:12.637Z,95156.22
2022-10-09T11:27:34.365Z,95152.75
2022-10-09T11:28:42.605Z,95150.63
2022-10-09T11:29:51.921Z,95115.34
2022-10-09T11:31:08.512Z,95147.41
2022-10-09T11:32:16.413Z,95029.59
2022-10-09T11:33:19.159Z,95154.88
2022-10-09T11:34:39.398Z,95145.81
2022-10-09T11:35:53.611Z,95117.78
2022-10-09T11:36:50.356Z,95162.09
2022-10-09T11:38:13.745Z,95061.38
2022-10-09T11:39:32.487Z,95150.34
2022-10-09T11:40:39.886Z,95105.97
2022-10-09T11:41:38.166Z,95134.28
2022-10-09T11:42:35.731Z,95173.06
2022-10-09T11:43:50.467Z,95142.84
2022-10-09T11:44:55.791Z,95141.25
2022-10-09T11:46:09.582Z,95096.38
2022-10-09T11:47:16.735Z,95156.22
2022-10-09T11:48:45.728Z,95032.25
2022-10-09T11:49:57.208Z,95132.97
2022-10-09T11:51:03.599Z,95118.28
2022-10-09T11:52:19.530Z,95034.94
2022-10-09T11:53:20.779Z,95138.81
2022-10-09T11:54:21.435Z,95146.59
2022-10-09T11:55:25.254Z,95140.94
2022-10-09T11:56:27.862Z,95067.50
2022-10-09T11:57:29.332Z,94869.44
2022-10-09T11:58:26.184Z,95130.53
2022-10-09T11:59:36.332Z,95100.88
2022-10-09T12:00:36.591Z,95124.13
2022-10-09T12:01:44.778Z,95116.91
2022-10-09T12:02:43.461Z,95132.16
2022-10-09T12:03:40.912Z,95100.88